createdAt,value
2018-07-15T00:00:32.327Z,5.50
2018-07-15T00:03:00.991Z,7.07
2018-07-15T00:05:29.796Z,5.47
2018-07-15T00:07:58.397Z,5.17
2018-07-15T00:10:27.136Z,6.20
2018-07-15T00:12:55.799Z,5.47
2018-07-15T00:15:24.485Z,6.33
2018-07-15T00:17:53.112Z,5.97
2018-07-15T00:20:21.760Z,6.40
2018-07-15T00:22:50.434Z,5.63
2018-07-15T00:25:19.136Z,5.60
2018-07-15T00:27:47.805Z,6.40
2018-07-15T00:30:16.483Z,7.27
2018-07-15T00:32:45.103Z,5.63
2018-07-15T00:35:13.788Z,5.83
2018-07-15T00:37:42.505Z,6.73
2018-07-15T00:40:11.196Z,5.70
2018-07-15T00:42:39.825Z,6.40
2018-07-15T00:45:08.533Z,6.20
2018-07-15T00:47:37.177Z,7.13
2018-07-15T00:50:05.952Z,6.53
2018-07-15T00:52:34.551Z,7.00
2018-07-15T00:55:03.287Z,6.87
2018-07-15T00:57:32.154Z,5.80
2018-07-15T01:00:00.802Z,6.57
2018-07-15T01:02:29.436Z,6.40
2018-07-15T01:04:58.035Z,5.73
2018-07-15T01:07:26.702Z,8.20
2018-07-15T01:09:55.367Z,6.30
2018-07-15T01:12:24.025Z,8.80
2018-07-15T01:14:52.648Z,7.40
2018-07-15T01:17:21.287Z,9.77
2018-07-15T01:19:49.880Z,11.60
2018-07-15T01:22:18.508Z,10.13
2018-07-15T01:24:47.127Z,7.17
2018-07-15T01:27:15.763Z,9.03
2018-07-15T01:29:44.383Z,6.33
2018-07-15T01:32:13.026Z,6.70
2018-07-15T01:34:41.635Z,8.23
2018-07-15T01:37:10.269Z,6.60
2018-07-15T01:39:38.908Z,11.00
2018-07-15T01:42:07.536Z,9.90
2018-07-15T01:44:36.196Z,8.87
2018-07-15T01:47:04.960Z,7.30
2018-07-15T01:49:33.635Z,7.93
2018-07-15T01:52:02.296Z,6.63
2018-07-15T01:54:31.051Z,11.60
2018-07-15T01:56:59.711Z,7.83
2018-07-15T01:59:28.362Z,8.13
2018-07-15T02:01:56.974Z,7.00
2018-07-15T02:04:25.649Z,6.60
2018-07-15T02:06:54.276Z,8.03
2018-07-15T02:09:22.947Z,6.80
2018-07-15T02:11:51.599Z,7.10
2018-07-15T02:14:20.212Z,8.13
2018-07-15T02:16:48.819Z,6.17
2018-07-15T02:19:17.415Z,5.97
2018-07-15T02:21:46.051Z,8.40
2018-07-15T02:24:14.680Z,7.20
2018-07-15T02:26:43.300Z,6.20
2018-07-15T02:29:12.106Z,6.00
2018-07-15T02:31:40.719Z,6.53
2018-07-15T02:34:10.446Z,7.43
2018-07-15T02:36:39.082Z,7.57
2018-07-15T02:39:09.070Z,11.50
2018-07-15T02:41:37.704Z,6.53
2018-07-15T02:44:06.931Z,6.57
2018-07-15T02:46:35.646Z,7.00
2018-07-15T02:49:04.283Z,6.80
2018-07-15T02:51:33.028Z,8.47
2018-07-15T02:54:01.738Z,5.73
2018-07-15T02:56:30.322Z,6.10
2018-07-15T02:58:58.942Z,7.57
2018-07-15T03:01:27.635Z,7.00
2018-07-15T03:03:56.405Z,6.33
2018-07-15T03:06:25.208Z,6.63
2018-07-15T03:08:53.807Z,7.03
2018-07-15T03:11:22.461Z,6.20
2018-07-15T03:13:51.154Z,6.23
2018-07-15T03:16:19.971Z,6.47
2018-07-15T03:18:48.572Z,6.90
2018-07-15T03:21:17.224Z,5.33
2018-07-15T03:23:45.847Z,6.20
2018-07-15T03:26:14.572Z,7.03
2018-07-15T03:28:43.203Z,7.00
2018-07-15T03:31:11.820Z,8.70
2018-07-15T03:33:40.460Z,5.37
2018-07-15T03:36:09.115Z,6.20
2018-07-15T03:38:37.776Z,5.50
2018-07-15T03:41:06.432Z,6.87
2018-07-15T03:43:35.108Z,6.13
2018-07-15T03:46:03.750Z,8.03
2018-07-15T03:48:32.580Z,9.37
2018-07-15T03:51:01.265Z,7.13
2018-07-15T03:53:29.922Z,6.07
2018-07-15T03:55:58.561Z,8.77
2018-07-15T03:58:27.247Z,9.77
2018-07-15T04:00:55.900Z,6.80
2018-07-15T04:03:24.599Z,6.63
2018-07-15T04:05:53.202Z,6.20
2018-07-15T04:08:21.844Z,8.17
2018-07-15T04:10:51.109Z,6.67
2018-07-15T04:13:19.928Z,7.40
2018-07-15T04:15:48.545Z,5.77
2018-07-15T04:18:17.167Z,6.20
2018-07-15T04:20:45.810Z,6.90
2018-07-15T04:23:14.475Z,7.57
2018-07-15T04:25:43.098Z,5.70
2018-07-15T04:28:11.875Z,7.60
2018-07-15T04:30:40.424Z,6.27
2018-07-15T04:33:09.074Z,6.80
2018-07-15T04:35:37.699Z,7.13
2018-07-15T04:38:06.393Z,8.70
2018-07-15T04:40:35.033Z,5.93
2018-07-15T04:43:03.647Z,7.40
2018-07-15T04:45:32.344Z,6.70
2018-07-15T04:48:01.007Z,7.93
2018-07-15T04:50:29.664Z,6.00
2018-07-15T04:52:58.328Z,8.83
2018-07-15T04:55:26.940Z,8.20
2018-07-15T04:57:55.585Z,8.30
2018-07-15T05:00:24.252Z,6.73
2018-07-15T05:02:52.876Z,6.07
2018-07-15T05:05:21.534Z,6.47
2018-07-15T05:07:50.183Z,8.00
2018-07-15T05:10:18.824Z,6.03
2018-07-15T05:12:47.488Z,5.30
2018-07-15T05:15:16.167Z,5.73
2018-07-15T05:17:44.842Z,5.33
2018-07-15T05:20:13.496Z,6.37
2018-07-15T05:22:42.135Z,5.13
2018-07-15T05:25:10.835Z,5.30
2018-07-15T05:27:39.508Z,7.50
2018-07-15T05:30:08.145Z,4.90
2018-07-15T05:32:36.803Z,4.70
2018-07-15T05:35:05.530Z,5.80
2018-07-15T05:37:34.203Z,24.43
2018-07-15T05:40:02.909Z,46.10
2018-07-15T05:42:31.553Z,86.30
2018-07-15T05:45:00.196Z,41.80
2018-07-15T05:47:28.847Z,51.03
2018-07-15T05:49:58.533Z,27.33
2018-07-15T05:52:27.141Z,20.27
2018-07-15T05:54:55.828Z,13.90
2018-07-15T05:57:24.463Z,20.90
2018-07-15T05:59:53.113Z,14.10
2018-07-15T06:02:21.695Z,8.23
2018-07-15T06:04:50.324Z,9.00
2018-07-15T06:07:19.124Z,7.87
2018-07-15T06:09:47.720Z,7.37
2018-07-15T06:12:16.458Z,3.93
2018-07-15T06:14:45.312Z,5.33
2018-07-15T06:17:14.040Z,4.70
2018-07-15T06:19:42.659Z,3.53
2018-07-15T06:22:11.337Z,3.37
2018-07-15T06:24:39.988Z,5.60
2018-07-15T06:27:08.628Z,8.40
2018-07-15T06:29:37.377Z,26.27
2018-07-15T06:32:06.349Z,21.37
2018-07-15T06:34:35.079Z,11.70
2018-07-15T06:37:04.089Z,34.90
2018-07-15T06:39:32.876Z,44.47
2018-07-15T06:42:01.616Z,38.53
2018-07-15T06:44:30.317Z,36.93
2018-07-15T06:46:59.012Z,30.23
2018-07-15T06:49:27.672Z,22.47
2018-07-15T06:51:56.387Z,22.27
2018-07-15T06:54:25.090Z,9.50
2018-07-15T06:56:53.755Z,9.80
2018-07-15T06:59:22.471Z,9.53
2018-07-15T07:01:51.135Z,7.80
2018-07-15T07:04:19.771Z,7.63
2018-07-15T07:06:48.510Z,8.97
2018-07-15T07:09:17.206Z,5.93
2018-07-15T07:11:46.029Z,3.80
2018-07-15T07:14:14.696Z,7.27
2018-07-15T07:16:43.328Z,3.20
2018-07-15T07:19:12.144Z,2.53
2018-07-15T07:21:41.392Z,2.97
2018-07-15T07:24:10.071Z,3.43
2018-07-15T07:26:38.755Z,2.57
2018-07-15T07:29:07.443Z,6.30
2018-07-15T07:34:10.989Z,4.57
2018-07-15T07:36:39.637Z,5.77
2018-07-15T07:39:08.346Z,13.00
2018-07-15T07:41:37.203Z,17.23
2018-07-15T07:44:05.830Z,14.00
2018-07-15T07:46:34.493Z,15.33
2018-07-15T07:49:03.167Z,18.83
2018-07-15T07:51:31.851Z,23.10
2018-07-15T07:54:00.633Z,13.03
2018-07-15T07:56:29.341Z,28.80
2018-07-15T07:58:57.984Z,29.00
2018-07-15T08:01:26.688Z,17.83
2018-07-15T08:03:55.401Z,8.30
2018-07-15T08:06:24.048Z,7.83
2018-07-15T08:08:52.673Z,3.90
2018-07-15T08:11:21.339Z,9.40
2018-07-15T08:13:50.052Z,4.03
2018-07-15T08:16:18.723Z,3.53
2018-07-15T08:18:47.321Z,6.50
2018-07-15T08:21:15.984Z,5.07
2018-07-15T08:23:44.672Z,4.53
2018-07-15T08:26:13.341Z,7.70
2018-07-15T08:28:41.967Z,3.43
2018-07-15T08:31:18.411Z,3.43
2018-07-15T08:33:47.088Z,3.57
2018-07-15T08:36:15.971Z,4.17
2018-07-15T08:38:44.647Z,2.87
2018-07-15T08:41:13.303Z,4.97
2018-07-15T08:43:42.042Z,14.13
2018-07-15T08:46:10.988Z,21.70
2018-07-15T08:48:39.789Z,9.00
2018-07-15T08:51:08.454Z,36.43
2018-07-15T08:53:37.112Z,26.60
2018-07-15T08:56:05.832Z,15.67
2018-07-15T08:58:34.517Z,34.87
2018-07-15T09:01:03.257Z,16.47
2018-07-15T09:03:31.911Z,19.90
2018-07-15T09:06:00.592Z,32.87
2018-07-15T09:08:29.611Z,8.30
2018-07-15T09:10:58.518Z,11.40
2018-07-15T09:13:27.196Z,6.87
2018-07-15T09:15:55.880Z,7.67
2018-07-15T09:18:24.577Z,7.23
2018-07-15T09:20:53.259Z,7.33
2018-07-15T09:23:21.980Z,8.33
2018-07-15T09:25:50.833Z,6.10
2018-07-15T09:28:19.556Z,5.40
2018-07-15T09:30:48.208Z,5.97
2018-07-15T09:33:16.911Z,5.50
2018-07-15T09:35:45.592Z,5.03
2018-07-15T09:38:14.302Z,5.80
2018-07-15T09:40:42.928Z,5.07
2018-07-15T09:43:11.571Z,5.07
2018-07-15T09:45:40.597Z,6.03
2018-07-15T09:48:09.281Z,5.70
2018-07-15T09:50:37.905Z,6.17
2018-07-15T09:53:06.998Z,6.77
2018-07-15T09:55:35.626Z,6.20
2018-07-15T09:58:04.407Z,9.37
2018-07-15T10:00:38.576Z,7.43
2018-07-15T10:03:07.559Z,5.87
2018-07-15T10:05:36.265Z,5.90
2018-07-15T10:08:05.230Z,6.73
2018-07-15T10:10:33.970Z,8.80
2018-07-15T10:13:02.661Z,6.47
2018-07-15T10:15:31.398Z,5.97
2018-07-15T10:18:00.132Z,5.97
2018-07-15T10:20:28.877Z,17.47
2018-07-15T10:22:57.659Z,23.80
2018-07-15T10:25:26.400Z,38.27
2018-07-15T10:27:55.084Z,30.53
2018-07-15T10:30:23.786Z,27.77
2018-07-15T10:32:52.982Z,47.63
2018-07-15T10:35:21.855Z,21.70
2018-07-15T10:37:50.921Z,13.73
2018-07-15T10:40:19.673Z,20.77
2018-07-15T10:42:48.467Z,20.57
2018-07-15T10:45:17.103Z,11.37
2018-07-15T10:47:45.815Z,13.17
2018-07-15T10:50:14.509Z,13.57
2018-07-15T10:52:43.223Z,24.07
2018-07-15T10:55:11.880Z,16.23
2018-07-15T10:57:40.537Z,13.90
2018-07-15T11:00:09.357Z,11.07
2018-07-15T11:02:38.015Z,13.40
2018-07-15T11:05:06.855Z,10.77
2018-07-15T11:07:36.763Z,12.93
2018-07-15T11:10:05.573Z,10.93
2018-07-15T11:12:34.266Z,11.87
2018-07-15T11:15:03.042Z,12.00
2018-07-15T11:17:32.045Z,11.27
2018-07-15T11:20:00.668Z,9.67
2018-07-15T11:22:29.363Z,10.13
2018-07-15T11:24:58.266Z,9.80
2018-07-15T11:27:27.036Z,11.53
2018-07-15T11:29:55.729Z,10.20
2018-07-15T11:32:24.394Z,8.57
2018-07-15T11:34:53.026Z,8.63
2018-07-15T11:37:21.780Z,9.53
2018-07-15T11:39:50.828Z,10.40
2018-07-15T11:42:19.547Z,10.67
2018-07-15T11:44:48.593Z,7.97
2018-07-15T11:47:17.375Z,10.00
2018-07-15T11:49:46.058Z,8.93
2018-07-15T11:52:14.696Z,10.00
2018-07-15T11:54:43.479Z,10.20
2018-07-15T11:57:12.231Z,9.53
2018-07-15T11:59:40.955Z,9.70
2018-07-15T12:02:09.767Z,10.47
2018-07-15T12:04:38.467Z,9.60
2018-07-15T12:07:07.108Z,9.30
2018-07-15T12:09:35.795Z,8.13
2018-07-15T12:12:04.513Z,8.60
2018-07-15T12:14:33.226Z,8.67
2018-07-15T12:17:01.844Z,8.53
2018-07-15T12:19:30.532Z,8.70
2018-07-15T12:21:59.170Z,16.90
2018-07-15T12:24:27.884Z,14.10
2018-07-15T12:26:56.770Z,8.93
2018-07-15T12:29:25.475Z,8.90
2018-07-15T12:31:54.132Z,7.73
2018-07-15T12:34:23.113Z,7.77
2018-07-15T12:36:51.823Z,7.80
2018-07-15T12:39:20.660Z,8.50
2018-07-15T12:41:49.329Z,9.50
2018-07-15T12:44:18.032Z,12.17
2018-07-15T12:46:46.712Z,17.90
2018-07-15T12:49:15.429Z,13.63
2018-07-15T12:51:44.101Z,22.40
2018-07-15T12:54:12.756Z,25.20
2018-07-15T12:56:41.409Z,25.83
2018-07-15T12:59:10.161Z,14.07
2018-07-15T13:01:38.820Z,17.53
2018-07-15T13:04:07.539Z,20.00
2018-07-15T13:06:36.328Z,17.00
2018-07-15T13:09:05.529Z,17.40
2018-07-15T13:11:34.224Z,12.83
2018-07-15T13:14:02.900Z,17.00
2018-07-15T13:16:31.846Z,18.07
2018-07-15T13:19:00.552Z,12.17
2018-07-15T13:21:29.529Z,12.23
2018-07-15T13:23:58.144Z,9.03
2018-07-15T13:26:26.792Z,10.13
2018-07-15T13:28:55.502Z,8.40
2018-07-15T13:31:24.152Z,7.07
2018-07-15T13:33:52.872Z,7.27
2018-07-15T13:36:21.537Z,5.87
2018-07-15T13:38:50.321Z,6.90
2018-07-15T13:41:18.974Z,7.97
2018-07-15T13:43:47.634Z,7.53
2018-07-15T13:46:16.392Z,5.57
2018-07-15T13:48:45.052Z,5.87
2018-07-15T13:51:13.704Z,5.67
2018-07-15T13:53:42.395Z,5.90
2018-07-15T13:56:11.060Z,5.57
2018-07-15T13:58:39.752Z,5.77
2018-07-15T14:01:08.656Z,5.73
2018-07-15T14:03:37.643Z,4.70
2018-07-15T14:06:06.304Z,5.60
2018-07-15T14:08:34.909Z,7.40
2018-07-15T14:11:03.630Z,4.87
2018-07-15T14:13:32.347Z,4.93
2018-07-15T14:16:00.952Z,5.13
2018-07-15T14:18:29.649Z,5.07
2018-07-15T14:20:58.279Z,5.50
2018-07-15T14:23:26.904Z,5.10
2018-07-15T14:25:55.660Z,4.07
2018-07-15T14:28:24.325Z,5.13
2018-07-15T14:30:53.191Z,4.77
2018-07-15T14:33:21.888Z,5.47
2018-07-15T14:35:50.544Z,5.40
2018-07-15T14:38:19.409Z,7.93
2018-07-15T14:40:48.165Z,5.40
2018-07-15T14:43:16.820Z,5.23
2018-07-15T14:45:46.571Z,5.30
2018-07-15T14:48:15.236Z,5.67
2018-07-15T14:53:53.680Z,7.20
2018-07-15T14:56:22.314Z,5.23
2018-07-15T14:58:51.217Z,6.63
2018-07-15T15:01:20.573Z,5.83
2018-07-15T15:03:49.341Z,5.70
2018-07-15T15:06:18.138Z,4.80
2018-07-15T15:08:46.932Z,6.13
2018-07-15T15:11:15.709Z,4.80
2018-07-15T15:13:44.397Z,6.03
2018-07-15T15:16:13.194Z,5.10
2018-07-15T15:18:41.880Z,5.10
2018-07-15T15:21:11.267Z,5.87
2018-07-15T15:23:40.130Z,5.27
2018-07-15T15:26:08.811Z,5.80
2018-07-15T15:28:37.789Z,5.43
2018-07-15T15:31:06.697Z,6.67
2018-07-15T15:33:35.461Z,5.50
2018-07-15T15:36:04.922Z,5.00
2018-07-15T15:38:33.595Z,5.00
2018-07-15T15:41:02.325Z,5.00
2018-07-15T15:43:31.066Z,6.93
2018-07-15T15:45:59.772Z,5.80
2018-07-15T15:48:28.496Z,5.70
2018-07-15T15:50:57.504Z,4.97
2018-07-15T15:53:27.296Z,4.40
2018-07-15T15:55:56.063Z,5.30
2018-07-15T15:58:24.826Z,5.20
2018-07-15T16:00:53.481Z,5.27
2018-07-15T16:03:22.346Z,4.80
2018-07-15T16:05:51.047Z,5.33
2018-07-15T16:08:20.328Z,4.57
2018-07-15T16:10:49.084Z,5.30
2018-07-15T16:13:17.746Z,125.53
2018-07-15T16:15:46.509Z,37.10
2018-07-15T16:18:15.234Z,12.70
2018-07-15T16:20:44.026Z,50.10
2018-07-15T16:23:12.793Z,26.83
2018-07-15T16:25:41.543Z,29.90
2018-07-15T16:28:10.232Z,70.37
2018-07-15T16:30:38.984Z,24.97
2018-07-15T16:33:07.681Z,13.50
2018-07-15T16:35:36.468Z,31.27
2018-07-15T16:38:05.257Z,19.33
2018-07-15T16:40:33.993Z,31.30
2018-07-15T16:43:02.744Z,13.50
2018-07-15T16:45:31.560Z,11.73
2018-07-15T16:48:00.276Z,11.70
2018-07-15T16:50:31.103Z,14.93
2018-07-15T16:52:59.841Z,8.43
2018-07-15T16:55:28.748Z,8.33
2018-07-15T16:57:57.581Z,6.63
2018-07-15T17:00:26.314Z,7.27
2018-07-15T17:02:55.069Z,6.73
2018-07-15T17:05:24.780Z,6.40
2018-07-15T17:07:53.480Z,39.70
2018-07-15T17:10:22.953Z,42.20
2018-07-15T17:12:51.691Z,26.73
2018-07-15T17:15:20.420Z,23.27
2018-07-15T17:17:49.141Z,17.83
2018-07-15T17:20:17.795Z,19.73
2018-07-15T17:22:46.514Z,38.43
2018-07-15T17:25:15.266Z,22.90
2018-07-15T17:27:43.998Z,46.53
2018-07-15T17:30:12.735Z,14.30
2018-07-15T17:32:41.477Z,9.27
2018-07-15T17:35:10.206Z,18.70
2018-07-15T17:37:38.973Z,23.47
2018-07-15T17:40:07.682Z,10.17
2018-07-15T17:42:36.422Z,9.63
2018-07-15T17:45:11.961Z,9.47
2018-07-15T17:47:40.672Z,15.83
2018-07-15T17:50:09.360Z,9.07
2018-07-15T17:52:38.126Z,11.33
2018-07-15T17:55:06.845Z,30.60
2018-07-15T17:57:35.566Z,46.93
2018-07-15T18:00:05.020Z,92.63
2018-07-15T18:02:33.722Z,87.10
2018-07-15T18:05:02.382Z,17.77
2018-07-15T18:07:31.933Z,26.10
2018-07-15T18:10:00.717Z,10.40
2018-07-15T18:12:29.360Z,18.13
2018-07-15T18:14:58.163Z,13.93
2018-07-15T18:17:27.006Z,12.03
2018-07-15T18:19:55.852Z,10.03
2018-07-15T18:22:24.423Z,10.63
2018-07-15T18:24:53.140Z,10.70
2018-07-15T18:27:21.892Z,11.77
2018-07-15T18:29:50.444Z,14.47
2018-07-15T18:32:19.122Z,8.47
2018-07-15T18:34:48.093Z,8.87
2018-07-15T18:37:16.835Z,5.73
2018-07-15T18:39:46.516Z,6.33
2018-07-15T18:42:16.617Z,5.60
2018-07-15T18:44:45.276Z,6.00
2018-07-15T18:47:14.504Z,4.53
2018-07-15T18:49:43.746Z,5.90
2018-07-15T18:52:12.563Z,5.00
2018-07-15T18:54:41.277Z,6.00
2018-07-15T18:57:09.909Z,5.50
2018-07-15T18:59:38.653Z,6.53
2018-07-15T19:02:07.331Z,5.47
2018-07-15T19:04:36.185Z,5.20
2018-07-15T19:07:04.810Z,5.53
2018-07-15T19:09:33.866Z,5.67
2018-07-15T19:12:02.521Z,5.53
2018-07-15T19:14:31.227Z,4.83
2018-07-15T19:16:59.922Z,4.93
2018-07-15T19:19:29.433Z,4.63
2018-07-15T19:21:58.072Z,5.50
2018-07-15T19:24:26.797Z,5.07
2018-07-15T19:26:55.461Z,4.80
2018-07-15T19:29:24.741Z,6.43
2018-07-15T19:31:53.811Z,5.73
2018-07-15T19:34:22.577Z,6.23
2018-07-15T19:36:51.260Z,5.93
2018-07-15T19:39:19.945Z,10.30
2018-07-15T19:41:49.322Z,8.07
2018-07-15T19:44:18.034Z,6.30
2018-07-15T19:46:46.801Z,6.77
2018-07-15T19:49:15.883Z,6.87
2018-07-15T19:51:45.112Z,5.90
2018-07-15T19:54:13.867Z,5.93
2018-07-15T19:56:42.680Z,9.40
2018-07-15T19:59:11.366Z,5.33
2018-07-15T20:01:42.808Z,5.90
2018-07-15T20:04:11.806Z,5.80
2018-07-15T20:06:40.440Z,6.50
2018-07-15T20:09:09.324Z,10.53
2018-07-15T20:11:37.976Z,6.47
2018-07-15T20:14:06.664Z,7.97
2018-07-15T20:16:35.341Z,6.33
2018-07-15T20:19:04.275Z,7.53
2018-07-15T20:21:34.148Z,7.50
2018-07-15T20:24:02.861Z,6.80
2018-07-15T20:26:32.138Z,8.00
2018-07-15T20:29:01.163Z,6.70
2018-07-15T20:31:29.897Z,7.50
2018-07-15T20:33:59.618Z,11.10
2018-07-15T20:36:28.657Z,7.53
2018-07-15T20:38:57.490Z,7.83
2018-07-15T20:41:26.294Z,6.53
2018-07-15T20:43:55.155Z,5.93
2018-07-15T20:46:23.911Z,6.83
2018-07-15T20:48:52.606Z,7.03
2018-07-15T20:51:21.248Z,6.90
2018-07-15T20:53:49.978Z,7.40
2018-07-15T20:56:18.716Z,8.13
2018-07-15T20:58:47.591Z,7.47
2018-07-15T21:01:16.312Z,7.40
2018-07-15T21:03:45.305Z,7.30
2018-07-15T21:06:14.094Z,7.50
2018-07-15T21:08:42.801Z,9.33
2018-07-15T21:11:11.571Z,9.63
2018-07-15T21:13:40.332Z,8.00
2018-07-15T21:16:09.058Z,8.03
2018-07-15T21:18:38.197Z,8.53
2018-07-15T21:21:07.261Z,8.10
2018-07-15T21:23:35.943Z,8.57
2018-07-15T21:26:04.724Z,8.03
2018-07-15T21:28:33.600Z,9.00
2018-07-15T21:31:02.727Z,7.53
2018-07-15T21:33:31.506Z,9.27
2018-07-15T21:36:00.396Z,8.60
2018-07-15T21:38:29.133Z,8.40
2018-07-15T21:40:58.098Z,11.03
2018-07-15T21:43:26.940Z,8.80
2018-07-15T21:45:55.884Z,8.87
2018-07-15T21:48:24.915Z,9.20
2018-07-15T21:50:54.763Z,7.63
2018-07-15T21:53:23.730Z,8.97
2018-07-15T21:55:52.519Z,7.43
2018-07-15T21:58:21.523Z,7.90
2018-07-15T22:00:50.545Z,8.13
2018-07-15T22:03:19.267Z,8.53
2018-07-15T22:05:48.116Z,10.17
2018-07-15T22:08:28.032Z,8.50
2018-07-15T22:10:56.760Z,9.40
2018-07-15T22:13:25.864Z,7.80
2018-07-15T22:15:54.622Z,8.17
2018-07-15T22:18:24.905Z,8.50
2018-07-15T22:20:53.597Z,7.47
2018-07-15T22:23:22.437Z,7.13
2018-07-15T22:25:51.456Z,8.53
2018-07-15T22:28:20.222Z,7.07
2018-07-15T22:30:49.319Z,7.90
2018-07-15T22:33:17.995Z,8.27
2018-07-15T22:35:47.476Z,9.47
2018-07-15T22:38:16.130Z,8.80
2018-07-15T22:40:44.792Z,10.90
2018-07-15T22:43:13.460Z,9.97
2018-07-15T22:45:42.128Z,9.83
2018-07-15T22:48:10.810Z,7.97
2018-07-15T22:50:39.570Z,8.20
2018-07-15T22:53:08.236Z,7.63
2018-07-15T22:55:36.911Z,7.97
2018-07-15T22:58:05.761Z,8.50
2018-07-15T23:00:34.444Z,9.30
2018-07-15T23:03:03.120Z,9.30
2018-07-15T23:05:44.535Z,8.37
2018-07-15T23:08:13.267Z,9.97
2018-07-15T23:10:42.062Z,9.47
2018-07-15T23:13:11.484Z,8.27
2018-07-15T23:15:40.597Z,8.37
2018-07-15T23:18:09.727Z,7.80
2018-07-15T23:20:40.121Z,7.80
2018-07-15T23:23:09.663Z,7.93
2018-07-15T23:25:38.328Z,8.10
2018-07-15T23:28:08.718Z,8.33
2018-07-15T23:30:38.258Z,7.70
2018-07-15T23:33:07.477Z,8.10
2018-07-15T23:35:36.143Z,8.33
2018-07-15T23:38:04.947Z,8.90
2018-07-15T23:40:33.648Z,8.27
2018-07-15T23:43:02.784Z,8.13
2018-07-15T23:45:32.440Z,8.20
2018-07-15T23:48:01.216Z,7.47
2018-07-15T23:50:29.907Z,9.33
2018-07-15T23:52:58.591Z,7.47
2018-07-15T23:55:27.273Z,10.03
2018-07-15T23:57:56.065Z,8.80
